sensor_id;sensor_type;location;lat;lon;timestamp;pressure;altitude;pressure_sealevel;temperature;humidity
60427;BME280;46274;47.168;27.604;2023-07-20T00:01:17;99175.75;;;22.30;72.54
60427;BME280;46274;47.168;27.604;2023-07-20T00:07:39;99185.75;;;20.95;82.71
60427;BME280;46274;47.168;27.604;2023-07-20T00:13:55;99051.56;;;19.08;91.04
60427;BME280;46274;47.168;27.604;2023-07-20T00:19:57;98820.84;;;18.39;83.60
60427;BME280;46274;47.168;27.604;2023-07-20T00:26:17;98856.91;;;18.52;85.19
60427;BME280;46274;47.168;27.604;2023-07-20T00:32:27;99191.59;;;21.56;76.81
60427;BME280;46274;47.168;27.604;2023-07-20T00:38:33;99191.50;;;20.88;83.22
60427;BME280;46274;47.168;27.604;2023-07-20T00:44:43;98937.81;;;19.64;80.56
60427;BME280;46274;47.168;27.604;2023-07-20T00:50:55;98827.28;;;18.00;89.20
60427;BME280;46274;47.168;27.604;2023-07-20T00:57:07;99142.59;;;19.93;90.60
60427;BME280;46274;47.168;27.604;2023-07-20T01:03:18;99137.34;;;21.09;79.35
60427;BME280;46274;47.168;27.604;2023-07-20T01:15:39;99068.47;;;20.94;76.46
60427;BME280;46274;47.168;27.604;2023-07-20T01:22:03;99144.69;;;21.41;76.82
60427;BME280;46274;47.168;27.604;2023-07-20T01:28:33;99138.13;;;21.57;75.46
60427;BME280;46274;47.168;27.604;2023-07-20T01:34:44;99152.72;;;21.58;75.43
60427;BME280;46274;47.168;27.604;2023-07-20T01:40:57;98784.88;;;19.32;75.54
60427;BME280;46274;47.168;27.604;2023-07-20T01:47:01;98998.16;;;20.23;76.89
60427;BME280;46274;47.168;27.604;2023-07-20T01:53:13;99141.66;;;21.42;74.99
60427;BME280;46274;47.168;27.604;2023-07-20T01:59:20;99148.03;;;21.48;75.06
60427;BME280;46274;47.168;27.604;2023-07-20T02:05:29;98719.84;;;17.76;81.23
60427;BME280;46274;47.168;27.604;2023-07-20T02:11:34;98808.72;;;18.89;76.58
60427;BME280;46274;47.168;27.604;2023-07-20T02:17:49;99005.69;;;20.38;76.02
60427;BME280;46274;47.168;27.604;2023-07-20T02:24:00;98684.69;;;18.22;74.61
60427;BME280;46274;47.168;27.604;2023-07-20T02:30:14;99139.88;;;21.16;74.02
60427;BME280;46274;47.168;27.604;2023-07-20T02:36:27;99135.81;;;20.71;76.66
60427;BME280;46274;47.168;27.604;2023-07-20T02:42:29;99029.59;;;20.32;74.22
60427;BME280;46274;47.168;27.604;2023-07-20T02:48:40;99126.38;;;20.24;78.92
60427;BME280;46274;47.168;27.604;2023-07-20T02:55:01;98981.06;;;19.46;78.72
60427;BME280;46274;47.168;27.604;2023-07-20T03:01:07;99033.53;;;20.04;75.09
60427;BME280;46274;47.168;27.604;2023-07-20T03:07:27;98920.94;;;19.45;74.51
60427;BME280;46274;47.168;27.604;2023-07-20T03:13:39;98701.50;;;18.04;75.25
60427;BME280;46274;47.168;27.604;2023-07-20T03:19:56;99019.13;;;19.59;80.23
60427;BME280;46274;47.168;27.604;2023-07-20T03:26:12;98646.34;;;16.46;86.52
60427;BME280;46274;47.168;27.604;2023-07-20T03:32:17;98976.81;;;18.13;90.97
60427;BME280;46274;47.168;27.604;2023-07-20T03:38:26;99151.97;;;19.48;87.69
60427;BME280;46274;47.168;27.604;2023-07-20T03:44:36;98830.56;;;17.80;84.03
60427;BME280;46274;47.168;27.604;2023-07-20T03:50:44;98742.75;;;17.70;81.68
60427;BME280;46274;47.168;27.604;2023-07-20T03:56:58;99193.63;;;20.43;82.35
60427;BME280;46274;47.168;27.604;2023-07-20T04:03:09;99048.50;;;19.86;80.77
60427;BME280;46274;47.168;27.604;2023-07-20T04:09:12;98745.28;;;18.53;79.33
60427;BME280;46274;47.168;27.604;2023-07-20T04:15:22;98799.19;;;19.34;80.92
60427;BME280;46274;47.168;27.604;2023-07-20T04:21:40;98752.72;;;19.70;79.71
60427;BME280;46274;47.168;27.604;2023-07-20T04:28:21;99160.81;;;22.72;78.79
60427;BME280;46274;47.168;27.604;2023-07-20T04:34:40;99187.84;;;23.11;75.69
60427;BME280;46274;47.168;27.604;2023-07-20T04:40:54;98785.97;;;20.77;74.68
60427;BME280;46274;47.168;27.604;2023-07-20T04:47:15;98823.56;;;20.41;75.76
60427;BME280;46274;47.168;27.604;2023-07-20T04:53:20;99180.63;;;23.20;74.23
60427;BME280;46274;47.168;27.604;2023-07-20T04:59:32;98805.22;;;21.28;75.39
60427;BME280;46274;47.168;27.604;2023-07-20T05:06:01;99116.38;;;23.43;74.76
60427;BME280;46274;47.168;27.604;2023-07-20T05:12:12;98855.84;;;19.93;77.29
60427;BME280;46274;47.168;27.604;2023-07-20T05:18:41;99198.94;;;22.34;75.76
60427;BME280;46274;47.168;27.604;2023-07-20T05:25:15;99205.84;;;23.03;74.42
60427;BME280;46274;47.168;27.604;2023-07-20T05:31:57;99049.13;;;22.28;74.41
60427;BME280;46274;47.168;27.604;2023-07-20T05:38:09;98826.25;;;20.15;76.11
60427;BME280;46274;47.168;27.604;2023-07-20T05:44:31;99200.25;;;23.23;73.73
60427;BME280;46274;47.168;27.604;2023-07-20T05:50:43;99077.72;;;22.73;72.50
60427;BME280;46274;47.168;27.604;2023-07-20T05:56:54;99036.69;;;22.31;73.76
60427;BME280;46274;47.168;27.604;2023-07-20T06:03:26;98988.09;;;22.40;72.21
60427;BME280;46274;47.168;27.604;2023-07-20T06:09:53;98987.28;;;22.34;74.92
60427;BME280;46274;47.168;27.604;2023-07-20T06:16:35;99060.13;;;23.24;71.45
60427;BME280;46274;47.168;27.604;2023-07-20T06:23:00;98831.41;;;22.27;70.46
60427;BME280;46274;47.168;27.604;2023-07-20T06:29:14;99040.97;;;22.78;71.39
60427;BME280;46274;47.168;27.604;2023-07-20T06:35:17;99185.28;;;24.29;69.80
60427;BME280;46274;47.168;27.604;2023-07-20T06:41:22;98789.13;;;21.76;69.67
60427;BME280;46274;47.168;27.604;2023-07-20T06:47:33;99191.72;;;24.88;66.42
60427;BME280;46274;47.168;27.604;2023-07-20T06:53:47;99080.69;;;24.84;67.24
60427;BME280;46274;47.168;27.604;2023-07-20T07:00:11;99196.09;;;25.66;66.83
60427;BME280;46274;47.168;27.604;2023-07-20T07:13:02;99128.88;;;24.59;65.60
60427;BME280;46274;47.168;27.604;2023-07-20T07:19:38;99175.66;;;25.62;65.21
60427;BME280;46274;47.168;27.604;2023-07-20T07:25:46;99175.34;;;25.63;65.66
60427;BME280;46274;47.168;27.604;2023-07-20T07:31:55;98900.59;;;23.00;67.47
60427;BME280;46274;47.168;27.604;2023-07-20T07:37:59;99183.16;;;25.61;66.22
60427;BME280;46274;47.168;27.604;2023-07-20T07:44:54;98883.13;;;23.98;63.10
60427;BME280;46274;47.168;27.604;2023-07-20T07:51:27;99180.63;;;26.22;63.72
60427;BME280;46274;47.168;27.604;2023-07-20T07:57:52;99068.56;;;26.18;63.36
60427;BME280;46274;47.168;27.604;2023-07-20T08:03:59;99170.84;;;26.43;62.53
60427;BME280;46274;47.168;27.604;2023-07-20T08:10:10;98965.00;;;24.95;58.48
60427;BME280;46274;47.168;27.604;2023-07-20T08:23:31;98979.75;;;24.90;60.10
60427;BME280;46274;47.168;27.604;2023-07-20T08:29:41;99109.22;;;25.52;61.94
60427;BME280;46274;47.168;27.604;2023-07-20T08:35:53;99154.78;;;25.88;58.75
60427;BME280;46274;47.168;27.604;2023-07-20T08:42:14;99156.91;;;27.09;58.74
60427;BME280;46274;47.168;27.604;2023-07-20T08:48:18;99158.22;;;26.84;59.14
60427;BME280;46274;47.168;27.604;2023-07-20T08:54:41;98955.13;;;26.25;57.83
60427;BME280;46274;47.168;27.604;2023-07-20T09:00:45;99030.13;;;25.73;58.57
60427;BME280;46274;47.168;27.604;2023-07-20T09:06:49;98981.28;;;25.58;55.55
60427;BME280;46274;47.168;27.604;2023-07-20T09:19:29;98984.69;;;26.76;51.37
60427;BME280;46274;47.168;27.604;2023-07-20T09:25:57;98803.25;;;25.56;53.85
60427;BME280;46274;47.168;27.604;2023-07-20T09:32:03;99072.63;;;27.50;51.06
60427;BME280;46274;47.168;27.604;2023-07-20T09:38:18;98915.41;;;27.16;53.92
60427;BME280;46274;47.168;27.604;2023-07-20T09:44:31;98969.44;;;26.73;48.47
60427;BME280;46274;47.168;27.604;2023-07-20T09:51:04;99109.38;;;28.42;48.23
60427;BME280;46274;47.168;27.604;2023-07-20T09:57:25;98913.69;;;26.70;52.25
60427;BME280;46274;47.168;27.604;2023-07-20T10:03:58;98876.19;;;27.94;51.07
60427;BME280;46274;47.168;27.604;2023-07-20T10:10:14;99015.13;;;28.04;49.67
60427;BME280;46274;47.168;27.604;2023-07-20T10:16:35;99007.19;;;28.51;47.64
60427;BME280;46274;47.168;27.604;2023-07-20T10:23:12;98993.81;;;28.70;50.33
60427;BME280;46274;47.168;27.604;2023-07-20T10:29:34;98804.31;;;27.33;47.36
60427;BME280;46274;47.168;27.604;2023-07-20T10:43:24;98764.91;;;26.86;48.20
60427;BME280;46274;47.168;27.604;2023-07-20T10:50:00;99035.00;;;29.48;48.28
60427;BME280;46274;47.168;27.604;2023-07-20T10:56:26;99070.78;;;30.07;48.67
60427;BME280;46274;47.168;27.604;2023-07-20T11:02:58;98968.06;;;28.25;47.01
60427;BME280;46274;47.168;27.604;2023-07-20T11:09:23;98917.31;;;27.52;46.60
60427;BME280;46274;47.168;27.604;2023-07-20T11:22:23;99025.47;;;30.10;45.34
60427;BME280;46274;47.168;27.604;2023-07-20T11:29:05;98700.56;;;28.47;45.57
60427;BME280;46274;47.168;27.604;2023-07-20T11:36:13;98818.88;;;28.85;43.34
60427;BME280;46274;47.168;27.604;2023-07-20T11:42:22;98677.41;;;28.38;42.93
60427;BME280;46274;47.168;27.604;2023-07-20T11:55:29;98803.84;;;29.68;42.60
60427;BME280;46274;47.168;27.604;2023-07-20T12:01:42;98905.31;;;29.54;42.36
60427;BME280;46274;47.168;27.604;2023-07-20T12:07:51;98912.59;;;30.50;41.58
60427;BME280;46274;47.168;27.604;2023-07-20T12:14:03;98994.75;;;31.17;40.56
60427;BME280;46274;47.168;27.604;2023-07-20T12:26:48;98993.81;;;29.80;42.49
60427;BME280;46274;47.168;27.604;2023-07-20T12:33:16;98818.66;;;29.42;42.82
60427;BME280;46274;47.168;27.604;2023-07-20T12:39:18;98892.03;;;28.99;43.15
60427;BME280;46274;47.168;27.604;2023-07-20T12:45:28;98771.94;;;27.69;41.91
60427;BME280;46274;47.168;27.604;2023-07-20T12:51:30;98666.44;;;27.10;42.57
60427;BME280;46274;47.168;27.604;2023-07-20T12:57:37;99077.41;;;26.94;49.55
60427;BME280;46274;47.168;27.604;2023-07-20T13:03:44;98971.31;;;25.19;52.78
60427;BME280;46274;47.168;27.604;2023-07-20T13:09:53;99224.91;;;24.29;61.64
60427;BME280;46274;47.168;27.604;2023-07-20T13:15:55;98894.44;;;20.97;67.51
60427;BME280;46274;47.168;27.604;2023-07-20T13:22:05;98839.03;;;20.57;64.70
60427;BME280;46274;47.168;27.604;2023-07-20T13:28:42;99075.78;;;23.39;63.97
60427;BME280;46274;47.168;27.604;2023-07-20T13:35:30;98787.88;;;21.38;65.17
60427;BME280;46274;47.168;27.604;2023-07-20T13:41:58;98903.69;;;22.29;64.27
60427;BME280;46274;47.168;27.604;2023-07-20T13:55:28;98751.16;;;22.18;62.76
60427;BME280;46274;47.168;27.604;2023-07-20T14:02:13;99104.53;;;22.47;73.16
60427;BME280;46274;47.168;27.604;2023-07-20T14:28:37;98929.53;;;22.53;70.43
60427;BME280;46274;47.168;27.604;2023-07-20T14:42:44;98684.84;;;19.75;74.81
60427;BME280;46274;47.168;27.604;2023-07-20T14:49:10;98714.84;;;21.41;69.79
60427;BME280;46274;47.168;27.604;2023-07-20T14:55:15;98763.38;;;20.80;73.50
60427;BME280;46274;47.168;27.604;2023-07-20T15:16:41;98842.84;;;22.54;71.82
60427;BME280;46274;47.168;27.604;2023-07-20T15:23:29;98857.56;;;22.84;72.03
60427;BME280;46274;47.168;27.604;2023-07-20T18:54:20;98981.75;;;19.91;72.81
